The Glen, New York
Current Conditions -  °F | °C
As of 6:03 PM on Wednesday 22 Oct 2014 (Local Time) from KGFL Reporting Station
Overcast Overcast  
Wind Chill: 51°   Ceiling: 3100
Heat Index: 51°   Visibility: 10mi
Dew Point: 45°   Wind: 13mph
Humidity: 80%   Direction: 360°N
Pressure: 30.04"   Gusts: NA
Location:  43.4835°N, 73.8027°W
Report Text: KGFL 222203Z AUTO 36011KT 10SM SCT022 OVC031 11/07 A3004 RMK AO2 T01060072
Loading
Personal Weather Stations






























Interactive Weather Map
Tropical Storm Tracking
New forecast layout! Learn more

10-Day Weather Forecast

Advertisements
Track Severe Weather on mobile